createdAt,value
2023-02-06T00:26:03.252Z,20
2023-02-06T00:54:16.690Z,19
2023-02-06T01:22:38.029Z,19
2023-02-06T01:50:56.679Z,18
2023-02-06T02:19:16.548Z,20
2023-02-06T02:47:38.319Z,23
2023-02-06T03:15:55.773Z,24
2023-02-06T03:44:17.284Z,29
2023-02-06T04:12:34.735Z,33
2023-02-06T04:40:50.777Z,36
2023-02-06T05:09:11.593Z,38
2023-02-06T05:37:29.363Z,38
2023-02-06T06:05:45.207Z,38
2023-02-06T06:34:05.970Z,48
2023-02-06T07:02:14.636Z,48
2023-02-06T07:30:46.120Z,49
2023-02-06T07:59:00.787Z,48
2023-02-06T08:27:22.376Z,36
2023-02-06T08:55:29.008Z,44
2023-02-06T09:24:00.396Z,38
2023-02-06T09:52:37.583Z,37
2023-02-06T10:20:48.562Z,38
2023-02-06T10:49:20.585Z,37
2023-02-06T11:17:41.869Z,30
2023-02-06T11:45:55.969Z,20
2023-02-06T12:14:14.852Z,18
2023-02-06T12:42:26.706Z,19
2023-02-06T13:10:39.134Z,22
2023-02-06T13:38:57.976Z,18
2023-02-06T14:07:12.895Z,20
2023-02-06T14:35:36.877Z,20
2023-02-06T15:03:45.661Z,13
2023-02-06T15:32:00.735Z,11
2023-02-06T16:00:10.452Z,10
2023-02-06T16:28:34.764Z,10
2023-02-06T16:57:01.531Z,11
2023-02-06T17:25:14.225Z,18
2023-02-06T17:53:38.180Z,18
2023-02-06T18:21:59.575Z,22
2023-02-06T18:50:52.524Z,22
2023-02-06T19:19:44.341Z,26
2023-02-06T19:48:41.574Z,25
2023-02-06T20:17:42.512Z,24
2023-02-06T20:46:35.266Z,28
2023-02-06T21:15:26.172Z,25
2023-02-06T21:44:12.375Z,26
2023-02-06T22:13:09.812Z,27
2023-02-06T22:42:09.835Z,22
2023-02-06T23:11:12.777Z,17
2023-02-06T23:40:03.550Z,14
